sensor_id;sensor_type;location;lat;lon;timestamp;pressure;altitude;pressure_sealevel;temperature;humidity
34712;BME280;20941;42.408;25.634;2022-07-06T00:01:31;99338.28;;;22.83;50.00
34712;BME280;20941;42.408;25.634;2022-07-06T00:03:56;99348.53;;;22.87;50.15
34712;BME280;20941;42.408;25.634;2022-07-06T00:06:23;99332.13;;;22.77;50.14
34712;BME280;20941;42.408;25.634;2022-07-06T00:08:49;99338.69;;;22.81;50.12
34712;BME280;20941;42.408;25.634;2022-07-06T00:11:15;99351.03;;;22.92;50.46
34712;BME280;20941;42.408;25.634;2022-07-06T00:13:40;99359.19;;;22.87;50.75
34712;BME280;20941;42.408;25.634;2022-07-06T00:16:06;99363.31;;;22.89;49.90
34712;BME280;20941;42.408;25.634;2022-07-06T00:18:31;99357.91;;;22.77;49.65
34712;BME280;20941;42.408;25.634;2022-07-06T00:20:57;99365.28;;;22.82;50.12
34712;BME280;20941;42.408;25.634;2022-07-06T00:23:22;99348.47;;;22.76;49.84
34712;BME280;20941;42.408;25.634;2022-07-06T00:25:48;99341.94;;;22.76;50.21
34712;BME280;20941;42.408;25.634;2022-07-06T00:28:14;99350.91;;;22.74;49.96
34712;BME280;20941;42.408;25.634;2022-07-06T00:30:40;99342.72;;;22.73;49.76
34712;BME280;20941;42.408;25.634;2022-07-06T00:33:05;99337.84;;;22.77;49.73
34712;BME280;20941;42.408;25.634;2022-07-06T00:35:31;99329.63;;;22.75;49.47
34712;BME280;20941;42.408;25.634;2022-07-06T00:37:56;99333.72;;;22.78;49.58
34712;BME280;20941;42.408;25.634;2022-07-06T00:40:22;99332.94;;;22.81;49.47
34712;BME280;20941;42.408;25.634;2022-07-06T00:42:48;99327.22;;;22.81;50.03
34712;BME280;20941;42.408;25.634;2022-07-06T00:45:15;99323.94;;;22.83;50.46
34712;BME280;20941;42.408;25.634;2022-07-06T00:47:41;99322.31;;;22.85;50.49
34712;BME280;20941;42.408;25.634;2022-07-06T00:50:10;99322.31;;;22.85;50.91
34712;BME280;20941;42.408;25.634;2022-07-06T00:55:15;99319.81;;;22.80;51.55
34712;BME280;20941;42.408;25.634;2022-07-06T00:57:41;99312.84;;;22.74;52.08
34712;BME280;20941;42.408;25.634;2022-07-06T01:00:09;99293.53;;;22.64;52.20
34712;BME280;20941;42.408;25.634;2022-07-06T01:02:36;99297.63;;;22.63;52.79
34712;BME280;20941;42.408;25.634;2022-07-06T01:05:04;99300.88;;;22.57;53.26
34712;BME280;20941;42.408;25.634;2022-07-06T01:07:33;99286.50;;;22.50;53.08
34712;BME280;20941;42.408;25.634;2022-07-06T01:09:59;99273.31;;;22.42;53.51
34712;BME280;20941;42.408;25.634;2022-07-06T01:12:24;99280.28;;;22.41;53.96
34712;BME280;20941;42.408;25.634;2022-07-06T01:14:50;99274.44;;;22.34;54.16
34712;BME280;20941;42.408;25.634;2022-07-06T01:17:20;99275.34;;;22.38;54.30
34712;BME280;20941;42.408;25.634;2022-07-06T01:19:45;99257.13;;;22.16;54.75
34712;BME280;20941;42.408;25.634;2022-07-06T01:22:11;99285.00;;;22.22;54.95
34712;BME280;20941;42.408;25.634;2022-07-06T01:24:37;99279.19;;;22.11;54.91
34712;BME280;20941;42.408;25.634;2022-07-06T01:27:06;99281.81;;;21.86;55.24
34712;BME280;20941;42.408;25.634;2022-07-06T01:29:33;99285.34;;;21.69;56.11
34712;BME280;20941;42.408;25.634;2022-07-06T01:31:59;99285.91;;;21.47;56.69
34712;BME280;20941;42.408;25.634;2022-07-06T01:34:25;99267.59;;;21.18;56.97
34712;BME280;20941;42.408;25.634;2022-07-06T01:36:51;99275.59;;;21.05;58.16
34712;BME280;20941;42.408;25.634;2022-07-06T01:39:17;99268.06;;;20.90;58.43
34712;BME280;20941;42.408;25.634;2022-07-06T01:41:42;99261.50;;;20.89;58.56
34712;BME280;20941;42.408;25.634;2022-07-06T01:44:08;99251.53;;;20.76;58.71
34712;BME280;20941;42.408;25.634;2022-07-06T01:46:34;99243.97;;;20.60;59.16
34712;BME280;20941;42.408;25.634;2022-07-06T01:49:00;99278.50;;;20.75;59.43
34712;BME280;20941;42.408;25.634;2022-07-06T01:51:26;99282.09;;;20.72;59.35
34712;BME280;20941;42.408;25.634;2022-07-06T01:53:52;99256.59;;;20.59;59.66
34712;BME280;20941;42.408;25.634;2022-07-06T01:56:18;99250.72;;;20.48;59.89
34712;BME280;20941;42.408;25.634;2022-07-06T01:58:47;99267.41;;;20.46;60.36
34712;BME280;20941;42.408;25.634;2022-07-06T02:01:15;99268.31;;;20.50;60.10
34712;BME280;20941;42.408;25.634;2022-07-06T02:03:41;99272.38;;;20.49;60.25
34712;BME280;20941;42.408;25.634;2022-07-06T02:06:07;99259.34;;;20.52;60.37
34712;BME280;20941;42.408;25.634;2022-07-06T02:08:34;99267.63;;;20.61;60.55
34712;BME280;20941;42.408;25.634;2022-07-06T02:11:00;99260.78;;;20.65;60.80
34712;BME280;20941;42.408;25.634;2022-07-06T02:13:26;99241.53;;;20.62;60.45
34712;BME280;20941;42.408;25.634;2022-07-06T02:15:51;99260.44;;;20.71;60.80
34712;BME280;20941;42.408;25.634;2022-07-06T02:18:17;99268.63;;;20.72;61.09
34712;BME280;20941;42.408;25.634;2022-07-06T02:20:42;99266.38;;;20.85;60.88
34712;BME280;20941;42.408;25.634;2022-07-06T02:23:08;99232.66;;;20.67;60.66
34712;BME280;20941;42.408;25.634;2022-07-06T02:25:33;99255.63;;;20.75;60.77
34712;BME280;20941;42.408;25.634;2022-07-06T02:27:59;99262.97;;;20.76;60.59
34712;BME280;20941;42.408;25.634;2022-07-06T02:30:25;99251.53;;;20.76;60.57
34712;BME280;20941;42.408;25.634;2022-07-06T02:32:50;99257.31;;;20.79;60.29
34712;BME280;20941;42.408;25.634;2022-07-06T02:35:16;99240.09;;;20.76;60.73
34712;BME280;20941;42.408;25.634;2022-07-06T02:37:41;99229.47;;;20.73;61.32
34712;BME280;20941;42.408;25.634;2022-07-06T02:40:07;99221.34;;;20.75;61.25
34712;BME280;20941;42.408;25.634;2022-07-06T02:42:33;99237.34;;;20.83;61.38
34712;BME280;20941;42.408;25.634;2022-07-06T02:44:58;99233.28;;;20.84;61.51
34712;BME280;20941;42.408;25.634;2022-07-06T02:47:24;99241.91;;;20.88;61.31
34712;BME280;20941;42.408;25.634;2022-07-06T02:49:51;99246.72;;;20.80;60.42
34712;BME280;20941;42.408;25.634;2022-07-06T02:52:17;99226.72;;;20.53;60.56
34712;BME280;20941;42.408;25.634;2022-07-06T02:54:43;99241.34;;;20.48;60.99
34712;BME280;20941;42.408;25.634;2022-07-06T02:57:08;99234.53;;;20.29;62.63
34712;BME280;20941;42.408;25.634;2022-07-06T02:59:34;99230.47;;;20.30;62.18
34712;BME280;20941;42.408;25.634;2022-07-06T03:02:00;99226.75;;;20.26;62.40
34712;BME280;20941;42.408;25.634;2022-07-06T03:04:25;99215.72;;;20.25;62.52
34712;BME280;20941;42.408;25.634;2022-07-06T03:06:51;99214.06;;;20.24;62.56
34712;BME280;20941;42.408;25.634;2022-07-06T03:09:16;99228.47;;;20.31;63.38
34712;BME280;20941;42.408;25.634;2022-07-06T03:11:41;99218.63;;;20.28;63.23
34712;BME280;20941;42.408;25.634;2022-07-06T03:14:07;99227.78;;;20.41;63.88
34712;BME280;20941;42.408;25.634;2022-07-06T03:16:32;99231.53;;;20.45;64.12
34712;BME280;20941;42.408;25.634;2022-07-06T03:18:58;99224.56;;;20.46;64.00
34712;BME280;20941;42.408;25.634;2022-07-06T03:21:26;99213.66;;;20.52;63.99
34712;BME280;20941;42.408;25.634;2022-07-06T03:23:54;99223.25;;;20.97;63.12
34712;BME280;20941;42.408;25.634;2022-07-06T03:26:19;99238.81;;;21.38;62.16
34712;BME280;20941;42.408;25.634;2022-07-06T03:28:45;99236.47;;;21.88;60.56
34712;BME280;20941;42.408;25.634;2022-07-06T03:31:10;99229.78;;;22.25;58.79
34712;BME280;20941;42.408;25.634;2022-07-06T03:33:36;99241.97;;;22.71;57.43
34712;BME280;20941;42.408;25.634;2022-07-06T03:36:01;99246.75;;;23.22;55.76
34712;BME280;20941;42.408;25.634;2022-07-06T03:38:27;99244.78;;;23.52;54.70
34712;BME280;20941;42.408;25.634;2022-07-06T03:40:52;99256.66;;;23.65;53.23
34712;BME280;20941;42.408;25.634;2022-07-06T03:43:18;99255.44;;;23.66;52.84
34712;BME280;20941;42.408;25.634;2022-07-06T03:45:43;99252.97;;;23.75;52.61
34712;BME280;20941;42.408;25.634;2022-07-06T03:48:09;99252.19;;;23.78;51.97
34712;BME280;20941;42.408;25.634;2022-07-06T03:50:34;99253.38;;;23.59;51.90
34712;BME280;20941;42.408;25.634;2022-07-06T03:53:00;99237.38;;;23.47;52.03
34712;BME280;20941;42.408;25.634;2022-07-06T03:55:26;99248.88;;;23.51;52.71
34712;BME280;20941;42.408;25.634;2022-07-06T03:57:52;99246.78;;;23.40;52.69
34712;BME280;20941;42.408;25.634;2022-07-06T04:00:17;99242.72;;;23.52;52.50
34712;BME280;20941;42.408;25.634;2022-07-06T04:02:43;99249.31;;;23.78;51.94
34712;BME280;20941;42.408;25.634;2022-07-06T04:05:08;99254.69;;;24.09;51.21
34712;BME280;20941;42.408;25.634;2022-07-06T04:07:34;99240.28;;;24.34;50.95
34712;BME280;20941;42.408;25.634;2022-07-06T04:09:59;99238.22;;;24.56;50.26
34712;BME280;20941;42.408;25.634;2022-07-06T04:12:25;99236.53;;;24.77;50.32
34712;BME280;20941;42.408;25.634;2022-07-06T04:14:50;99231.16;;;24.90;49.80
34712;BME280;20941;42.408;25.634;2022-07-06T04:17:16;99229.09;;;24.83;49.94
34712;BME280;20941;42.408;25.634;2022-07-06T04:20:14;99252.50;;;24.89;50.61
34712;BME280;20941;42.408;25.634;2022-07-06T04:22:39;99233.59;;;24.95;50.08
34712;BME280;20941;42.408;25.634;2022-07-06T04:25:05;99242.97;;;25.06;50.55
34712;BME280;20941;42.408;25.634;2022-07-06T04:27:30;99212.50;;;25.23;50.05
34712;BME280;20941;42.408;25.634;2022-07-06T04:29:56;99235.84;;;25.47;49.86
34712;BME280;20941;42.408;25.634;2022-07-06T04:32:21;99236.50;;;25.69;48.87
34712;BME280;20941;42.408;25.634;2022-07-06T04:34:47;99240.06;;;25.88;48.63
34712;BME280;20941;42.408;25.634;2022-07-06T04:37:12;99247.41;;;25.96;48.42
34712;BME280;20941;42.408;25.634;2022-07-06T04:39:38;99238.28;;;26.08;47.89
34712;BME280;20941;42.408;25.634;2022-07-06T04:42:03;99262.75;;;26.35;46.92
34712;BME280;20941;42.408;25.634;2022-07-06T04:44:29;99264.28;;;26.47;46.77
34712;BME280;20941;42.408;25.634;2022-07-06T04:46:54;99258.31;;;26.68;45.87
34712;BME280;20941;42.408;25.634;2022-07-06T04:49:20;99251.22;;;26.77;45.71
34712;BME280;20941;42.408;25.634;2022-07-06T04:51:45;99256.66;;;26.67;46.00
34712;BME280;20941;42.408;25.634;2022-07-06T04:54:11;99249.47;;;26.45;45.92
34712;BME280;20941;42.408;25.634;2022-07-06T04:56:36;99263.16;;;26.79;44.84
34712;BME280;20941;42.408;25.634;2022-07-06T04:59:01;99256.50;;;26.82;44.85
34712;BME280;20941;42.408;25.634;2022-07-06T05:01:27;99260.59;;;26.88;44.87
34712;BME280;20941;42.408;25.634;2022-07-06T05:03:52;99255.75;;;26.78;44.13
34712;BME280;20941;42.408;25.634;2022-07-06T05:06:18;99268.16;;;26.74;44.27
34712;BME280;20941;42.408;25.634;2022-07-06T05:08:45;99256.75;;;26.60;44.53
34712;BME280;20941;42.408;25.634;2022-07-06T05:11:10;99246.88;;;26.57;44.06
34712;BME280;20941;42.408;25.634;2022-07-06T05:13:36;99267.56;;;26.49;44.82
34712;BME280;20941;42.408;25.634;2022-07-06T05:16:01;99272.59;;;26.37;44.85
34712;BME280;20941;42.408;25.634;2022-07-06T05:18:27;99271.09;;;26.22;45.59
34712;BME280;20941;42.408;25.634;2022-07-06T05:20:52;99277.72;;;26.19;44.67
34712;BME280;20941;42.408;25.634;2022-07-06T05:23:18;99276.09;;;26.14;44.35
34712;BME280;20941;42.408;25.634;2022-07-06T05:25:43;99261.41;;;25.94;44.47
34712;BME280;20941;42.408;25.634;2022-07-06T05:28:08;99284.38;;;26.08;44.56
34712;BME280;20941;42.408;25.634;2022-07-06T05:30:34;99283.56;;;26.04;43.61
34712;BME280;20941;42.408;25.634;2022-07-06T05:32:59;99290.97;;;26.05;44.30
34712;BME280;20941;42.408;25.634;2022-07-06T05:35:25;99289.75;;;26.03;44.18
34712;BME280;20941;42.408;25.634;2022-07-06T05:37:54;99281.94;;;26.03;44.39
34712;BME280;20941;42.408;25.634;2022-07-06T05:40:20;99274.25;;;25.82;44.77
34712;BME280;20941;42.408;25.634;2022-07-06T05:42:45;99291.13;;;25.84;45.69
34712;BME280;20941;42.408;25.634;2022-07-06T05:45:10;99288.56;;;25.97;45.89
34712;BME280;20941;42.408;25.634;2022-07-06T05:47:36;99286.84;;;26.10;45.93
34712;BME280;20941;42.408;25.634;2022-07-06T05:50:20;99293.81;;;26.13;45.99
34712;BME280;20941;42.408;25.634;2022-07-06T05:53:01;99292.94;;;26.23;46.32
34712;BME280;20941;42.408;25.634;2022-07-06T05:55:27;99267.78;;;26.23;46.27
34712;BME280;20941;42.408;25.634;2022-07-06T05:57:53;99275.16;;;26.28;46.63
34712;BME280;20941;42.408;25.634;2022-07-06T06:00:20;99274.38;;;26.24;46.87
34712;BME280;20941;42.408;25.634;2022-07-06T06:02:46;99283.69;;;26.42;46.67
34712;BME280;20941;42.408;25.634;2022-07-06T06:05:13;99292.59;;;26.59;46.62
34712;BME280;20941;42.408;25.634;2022-07-06T06:07:40;99287.19;;;26.65;46.96
34712;BME280;20941;42.408;25.634;2022-07-06T06:10:10;99279.69;;;26.74;46.85
34712;BME280;20941;42.408;25.634;2022-07-06T06:12:37;99280.28;;;26.97;46.13
34712;BME280;20941;42.408;25.634;2022-07-06T06:15:03;99279.28;;;27.11;45.95
34712;BME280;20941;42.408;25.634;2022-07-06T06:17:28;99279.31;;;27.07;46.17
34712;BME280;20941;42.408;25.634;2022-07-06T06:19:54;99280.38;;;27.20;46.32
34712;BME280;20941;42.408;25.634;2022-07-06T06:22:19;99290.06;;;27.37;46.27
34712;BME280;20941;42.408;25.634;2022-07-06T06:24:45;99290.44;;;27.43;46.03
34712;BME280;20941;42.408;25.634;2022-07-06T06:27:11;99266.50;;;27.43;46.07
34712;BME280;20941;42.408;25.634;2022-07-06T06:29:37;99280.47;;;27.48;45.88
34712;BME280;20941;42.408;25.634;2022-07-06T06:32:03;99257.84;;;27.43;46.42
34712;BME280;20941;42.408;25.634;2022-07-06T06:34:31;99260.63;;;27.50;46.74
34712;BME280;20941;42.408;25.634;2022-07-06T06:36:56;99278.63;;;27.61;46.50
34712;BME280;20941;42.408;25.634;2022-07-06T06:39:22;99269.84;;;27.68;46.67
34712;BME280;20941;42.408;25.634;2022-07-06T06:41:47;99270.34;;;27.63;46.76
34712;BME280;20941;42.408;25.634;2022-07-06T06:44:13;99267.19;;;27.81;46.14
34712;BME280;20941;42.408;25.634;2022-07-06T06:46:40;99267.63;;;27.80;46.77
34712;BME280;20941;42.408;25.634;2022-07-06T06:49:05;99256.84;;;27.84;46.32
34712;BME280;20941;42.408;25.634;2022-07-06T06:51:31;99269.03;;;27.95;46.88
34712;BME280;20941;42.408;25.634;2022-07-06T06:53:57;99264.91;;;27.96;47.17
34712;BME280;20941;42.408;25.634;2022-07-06T06:56:22;99261.41;;;28.09;46.50
34712;BME280;20941;42.408;25.634;2022-07-06T06:58:48;99192.50;;;27.80;46.47
34712;BME280;20941;42.408;25.634;2022-07-06T07:01:13;99266.13;;;28.23;45.82
34712;BME280;20941;42.408;25.634;2022-07-06T07:03:39;99262.06;;;28.20;46.06
34712;BME280;20941;42.408;25.634;2022-07-06T07:06:04;99261.19;;;28.23;46.06
34712;BME280;20941;42.408;25.634;2022-07-06T07:08:30;99267.53;;;28.38;45.46
34712;BME280;20941;42.408;25.634;2022-07-06T07:10:55;99255.78;;;28.49;45.49
34712;BME280;20941;42.408;25.634;2022-07-06T07:13:21;99261.28;;;28.63;45.44
34712;BME280;20941;42.408;25.634;2022-07-06T07:15:46;99263.91;;;28.78;46.77
34712;BME280;20941;42.408;25.634;2022-07-06T07:18:12;99266.00;;;28.97;46.44
34712;BME280;20941;42.408;25.634;2022-07-06T07:20:37;99254.09;;;29.36;46.05
34712;BME280;20941;42.408;25.634;2022-07-06T07:23:03;99255.03;;;29.49;45.11
34712;BME280;20941;42.408;25.634;2022-07-06T07:25:28;99261.31;;;29.64;45.12
34712;BME280;20941;42.408;25.634;2022-07-06T07:27:54;99260.69;;;29.73;44.42
34712;BME280;20941;42.408;25.634;2022-07-06T07:30:20;99260.25;;;29.74;44.70
34712;BME280;20941;42.408;25.634;2022-07-06T07:32:45;99263.97;;;29.75;44.05
34712;BME280;20941;42.408;25.634;2022-07-06T07:35:11;99275.13;;;29.56;45.29
34712;BME280;20941;42.408;25.634;2022-07-06T07:37:37;99263.72;;;29.49;44.66
34712;BME280;20941;42.408;25.634;2022-07-06T07:40:03;99272.34;;;29.33;44.87
34712;BME280;20941;42.408;25.634;2022-07-06T07:42:30;99263.72;;;29.29;45.13
34712;BME280;20941;42.408;25.634;2022-07-06T07:44:56;99261.13;;;28.94;45.13
34712;BME280;20941;42.408;25.634;2022-07-06T07:47:21;99260.88;;;28.85;45.93
34712;BME280;20941;42.408;25.634;2022-07-06T07:49:47;99252.97;;;29.09;45.47
34712;BME280;20941;42.408;25.634;2022-07-06T07:52:12;99252.16;;;29.09;45.11
34712;BME280;20941;42.408;25.634;2022-07-06T07:54:38;99263.03;;;29.01;45.94
34712;BME280;20941;42.408;25.634;2022-07-06T07:57:04;99250.75;;;28.97;45.92
34712;BME280;20941;42.408;25.634;2022-07-06T07:59:29;99247.78;;;28.80;46.27
34712;BME280;20941;42.408;25.634;2022-07-06T08:01:55;99253.19;;;28.78;46.74
34712;BME280;20941;42.408;25.634;2022-07-06T08:04:20;99242.72;;;29.05;46.05
34712;BME280;20941;42.408;25.634;2022-07-06T08:06:46;99256.00;;;29.02;45.28
34712;BME280;20941;42.408;25.634;2022-07-06T08:09:11;99250.47;;;28.67;45.79
34712;BME280;20941;42.408;25.634;2022-07-06T08:11:37;99252.63;;;28.63;45.99
34712;BME280;20941;42.408;25.634;2022-07-06T08:14:03;99245.44;;;28.72;46.07
34712;BME280;20941;42.408;25.634;2022-07-06T08:16:29;99242.94;;;28.74;46.15
34712;BME280;20941;42.408;25.634;2022-07-06T08:18:55;99225.81;;;28.83;45.72
34712;BME280;20941;42.408;25.634;2022-07-06T08:21:21;99242.84;;;28.97;45.46
34712;BME280;20941;42.408;25.634;2022-07-06T08:23:46;99237.16;;;28.74;45.08
34712;BME280;20941;42.408;25.634;2022-07-06T08:26:12;99231.72;;;28.52;45.64
34712;BME280;20941;42.408;25.634;2022-07-06T08:28:37;99256.38;;;28.60;45.22
34712;BME280;20941;42.408;25.634;2022-07-06T08:31:03;99242.75;;;28.61;45.59
34712;BME280;20941;42.408;25.634;2022-07-06T08:33:28;99242.94;;;28.26;46.34
34712;BME280;20941;42.408;25.634;2022-07-06T08:35:54;99246.66;;;28.50;45.29
34712;BME280;20941;42.408;25.634;2022-07-06T08:38:19;99251.53;;;28.77;44.76
34712;BME280;20941;42.408;25.634;2022-07-06T08:40:47;99241.06;;;29.04;45.24
34712;BME280;20941;42.408;25.634;2022-07-06T08:43:14;99248.81;;;29.10;44.43
34712;BME280;20941;42.408;25.634;2022-07-06T08:45:40;99244.84;;;29.21;43.95
34712;BME280;20941;42.408;25.634;2022-07-06T08:48:09;99247.56;;;29.32;43.23
34712;BME280;20941;42.408;25.634;2022-07-06T08:50:35;99238.94;;;29.65;42.28
34712;BME280;20941;42.408;25.634;2022-07-06T08:53:00;99242.47;;;29.72;42.25
34712;BME280;20941;42.408;25.634;2022-07-06T08:55:27;99236.28;;;29.90;42.00
34712;BME280;20941;42.408;25.634;2022-07-06T08:57:54;99230.75;;;30.13;41.11
34712;BME280;20941;42.408;25.634;2022-07-06T09:00:20;99227.59;;;30.40;40.12
34712;BME280;20941;42.408;25.634;2022-07-06T09:02:45;99237.84;;;30.74;39.54
34712;BME280;20941;42.408;25.634;2022-07-06T09:05:14;99239.25;;;30.99;39.83
34712;BME280;20941;42.408;25.634;2022-07-06T09:07:40;99235.09;;;30.37;41.17
34712;BME280;20941;42.408;25.634;2022-07-06T09:10:08;99232.41;;;30.30;41.07
34712;BME280;20941;42.408;25.634;2022-07-06T09:12:33;99230.31;;;29.98;40.90
34712;BME280;20941;42.408;25.634;2022-07-06T09:14:59;99240.44;;;30.22;40.98
34712;BME280;20941;42.408;25.634;2022-07-06T09:17:28;99236.66;;;30.59;39.43
34712;BME280;20941;42.408;25.634;2022-07-06T09:19:55;99233.94;;;30.51;39.24
34712;BME280;20941;42.408;25.634;2022-07-06T09:22:39;99226.09;;;29.82;40.63
34712;BME280;20941;42.408;25.634;2022-07-06T09:25:15;99234.44;;;29.80;40.61
34712;BME280;20941;42.408;25.634;2022-07-06T09:27:43;99233.47;;;30.20;39.66
34712;BME280;20941;42.408;25.634;2022-07-06T09:30:13;99239.91;;;30.44;39.48
34712;BME280;20941;42.408;25.634;2022-07-06T09:32:41;99240.63;;;30.65;39.25
34712;BME280;20941;42.408;25.634;2022-07-06T09:35:07;99237.41;;;31.05;38.69
34712;BME280;20941;42.408;25.634;2022-07-06T09:37:33;99237.94;;;31.16;37.96
34712;BME280;20941;42.408;25.634;2022-07-06T09:39:58;99226.13;;;31.07;38.38
34712;BME280;20941;42.408;25.634;2022-07-06T09:42:25;99212.00;;;31.09;38.38
34712;BME280;20941;42.408;25.634;2022-07-06T09:44:51;99219.03;;;31.37;38.12
34712;BME280;20941;42.408;25.634;2022-07-06T09:47:18;99221.72;;;31.32;37.46
34712;BME280;20941;42.408;25.634;2022-07-06T09:49:45;99234.25;;;30.99;38.34
34712;BME280;20941;42.408;25.634;2022-07-06T09:52:11;99224.78;;;31.12;38.15
34712;BME280;20941;42.408;25.634;2022-07-06T09:54:38;99214.09;;;30.79;38.91
34712;BME280;20941;42.408;25.634;2022-07-06T09:57:04;99228.75;;;30.59;39.21
34712;BME280;20941;42.408;25.634;2022-07-06T09:59:32;99207.47;;;30.16;40.59
34712;BME280;20941;42.408;25.634;2022-07-06T10:02:00;99211.28;;;29.97;40.88
34712;BME280;20941;42.408;25.634;2022-07-06T10:04:27;99222.53;;;30.11;41.36
34712;BME280;20941;42.408;25.634;2022-07-06T10:06:54;99229.03;;;30.15;41.00
34712;BME280;20941;42.408;25.634;2022-07-06T10:09:21;99209.66;;;29.96;41.75
34712;BME280;20941;42.408;25.634;2022-07-06T10:11:49;99208.41;;;30.13;41.34
34712;BME280;20941;42.408;25.634;2022-07-06T10:14:19;99216.50;;;30.35;40.25
34712;BME280;20941;42.408;25.634;2022-07-06T10:16:46;99209.09;;;30.34;40.07
34712;BME280;20941;42.408;25.634;2022-07-06T10:19:13;99198.41;;;30.31;40.39
34712;BME280;20941;42.408;25.634;2022-07-06T10:21:40;99193.78;;;30.33;39.65
34712;BME280;20941;42.408;25.634;2022-07-06T10:24:07;99204.09;;;30.51;40.47
34712;BME280;20941;42.408;25.634;2022-07-06T10:26:34;99206.13;;;30.67;39.75
34712;BME280;20941;42.408;25.634;2022-07-06T10:29:04;99190.34;;;30.68;39.42
34712;BME280;20941;42.408;25.634;2022-07-06T10:31:30;99201.06;;;30.71;40.17
34712;BME280;20941;42.408;25.634;2022-07-06T10:33:57;99200.81;;;30.49;40.20
34712;BME280;20941;42.408;25.634;2022-07-06T10:36:24;99200.81;;;30.49;39.36
34712;BME280;20941;42.408;25.634;2022-07-06T10:38:51;99189.88;;;30.40;37.73
34712;BME280;20941;42.408;25.634;2022-07-06T10:41:16;99176.31;;;30.20;37.36
34712;BME280;20941;42.408;25.634;2022-07-06T10:43:44;99208.22;;;30.20;38.86
34712;BME280;20941;42.408;25.634;2022-07-06T10:46:17;99196.25;;;30.02;38.71
34712;BME280;20941;42.408;25.634;2022-07-06T10:48:46;99184.78;;;30.28;38.64
34712;BME280;20941;42.408;25.634;2022-07-06T10:51:23;99188.59;;;30.41;38.55
34712;BME280;20941;42.408;25.634;2022-07-06T10:53:59;99190.59;;;30.44;38.32
34712;BME280;20941;42.408;25.634;2022-07-06T10:56:36;99189.03;;;30.39;38.28
34712;BME280;20941;42.408;25.634;2022-07-06T10:59:15;99182.91;;;30.67;38.45
34712;BME280;20941;42.408;25.634;2022-07-06T11:04:40;99173.34;;;31.12;37.60
34712;BME280;20941;42.408;25.634;2022-07-06T11:07:12;99178.22;;;31.15;38.66
34712;BME280;20941;42.408;25.634;2022-07-06T11:09:38;99171.50;;;31.18;38.84
34712;BME280;20941;42.408;25.634;2022-07-06T11:12:20;99177.44;;;31.41;37.66
34712;BME280;20941;42.408;25.634;2022-07-06T11:14:47;99158.94;;;31.47;36.17
34712;BME280;20941;42.408;25.634;2022-07-06T11:17:13;99165.34;;;31.55;35.41
34712;BME280;20941;42.408;25.634;2022-07-06T11:19:54;99160.94;;;31.76;35.78
34712;BME280;20941;42.408;25.634;2022-07-06T11:22:20;99143.16;;;31.48;37.74
34712;BME280;20941;42.408;25.634;2022-07-06T11:24:48;99162.78;;;31.18;38.83
34712;BME280;20941;42.408;25.634;2022-07-06T11:27:14;99143.19;;;30.93;38.87
34712;BME280;20941;42.408;25.634;2022-07-06T11:29:40;99146.09;;;31.06;39.02
34712;BME280;20941;42.408;25.634;2022-07-06T11:32:07;99153.53;;;31.07;39.11
34712;BME280;20941;42.408;25.634;2022-07-06T11:34:39;99156.16;;;31.18;39.11
34712;BME280;20941;42.408;25.634;2022-07-06T11:37:07;99165.94;;;30.95;39.21
34712;BME280;20941;42.408;25.634;2022-07-06T11:39:38;99165.63;;;30.63;39.58
34712;BME280;20941;42.408;25.634;2022-07-06T11:42:11;99157.44;;;30.87;39.60
34712;BME280;20941;42.408;25.634;2022-07-06T11:44:37;99153.56;;;30.65;39.73
34712;BME280;20941;42.408;25.634;2022-07-06T11:47:04;99139.97;;;31.04;39.08
34712;BME280;20941;42.408;25.634;2022-07-06T11:49:31;99150.41;;;31.01;39.26
34712;BME280;20941;42.408;25.634;2022-07-06T11:52:00;99134.06;;;31.08;39.25
34712;BME280;20941;42.408;25.634;2022-07-06T11:54:26;99143.97;;;31.36;39.18
34712;BME280;20941;42.408;25.634;2022-07-06T11:56:54;99143.50;;;31.37;38.56
34712;BME280;20941;42.408;25.634;2022-07-06T11:59:25;99156.66;;;31.68;38.18
34712;BME280;20941;42.408;25.634;2022-07-06T12:04:24;99149.78;;;31.36;38.31
34712;BME280;20941;42.408;25.634;2022-07-06T12:06:49;99144.13;;;31.03;38.97
34712;BME280;20941;42.408;25.634;2022-07-06T12:09:15;99130.19;;;30.98;38.88
34712;BME280;20941;42.408;25.634;2022-07-06T12:11:44;99126.41;;;31.27;38.22
34712;BME280;20941;42.408;25.634;2022-07-06T12:14:19;99145.94;;;31.65;37.22
34712;BME280;20941;42.408;25.634;2022-07-06T12:16:47;99147.78;;;31.59;36.03
34712;BME280;20941;42.408;25.634;2022-07-06T12:19:14;99140.84;;;31.43;36.56
34712;BME280;20941;42.408;25.634;2022-07-06T12:21:45;99140.59;;;31.76;35.78
34712;BME280;20941;42.408;25.634;2022-07-06T12:24:17;99137.22;;;31.52;37.36
34712;BME280;20941;42.408;25.634;2022-07-06T12:26:44;99133.28;;;31.46;37.29
34712;BME280;20941;42.408;25.634;2022-07-06T12:29:11;99132.69;;;31.38;37.43
34712;BME280;20941;42.408;25.634;2022-07-06T12:31:42;99140.00;;;31.17;38.02
34712;BME280;20941;42.408;25.634;2022-07-06T12:34:14;99137.09;;;31.30;36.64
34712;BME280;20941;42.408;25.634;2022-07-06T12:36:47;99123.72;;;31.45;36.63
34712;BME280;20941;42.408;25.634;2022-07-06T12:39:15;99139.56;;;31.18;37.63
34712;BME280;20941;42.408;25.634;2022-07-06T12:42:00;99126.47;;;30.97;37.65
34712;BME280;20941;42.408;25.634;2022-07-06T12:44:26;99126.25;;;30.92;37.96
34712;BME280;20941;42.408;25.634;2022-07-06T12:47:04;99128.03;;;31.53;36.92
34712;BME280;20941;42.408;25.634;2022-07-06T12:49:30;99110.84;;;31.20;36.95
34712;BME280;20941;42.408;25.634;2022-07-06T12:52:10;99092.91;;;30.83;37.56
34712;BME280;20941;42.408;25.634;2022-07-06T12:54:44;99118.75;;;30.65;38.12
34712;BME280;20941;42.408;25.634;2022-07-06T12:57:20;99116.16;;;30.37;38.39